sensor_id;sensor_type;location;lat;lon;timestamp;P1;durP1;ratioP1;P2;durP2;ratioP2
19038;SDS011;9652;49.014;12.052;2024-03-08T00:01:00;19.57;;;10.30;;
19038;SDS011;9652;49.014;12.052;2024-03-08T00:03:28;14.27;;;9.73;;
19038;SDS011;9652;49.014;12.052;2024-03-08T00:05:55;15.33;;;10.00;;
19038;SDS011;9652;49.014;12.052;2024-03-08T00:08:22;14.73;;;10.30;;
19038;SDS011;9652;49.014;12.052;2024-03-08T00:10:50;16.27;;;10.33;;
19038;SDS011;9652;49.014;12.052;2024-03-08T00:13:17;12.87;;;9.23;;
19038;SDS011;9652;49.014;12.052;2024-03-08T00:15:45;13.77;;;9.37;;
19038;SDS011;9652;49.014;12.052;2024-03-08T00:18:13;16.50;;;10.30;;
19038;SDS011;9652;49.014;12.052;2024-03-08T00:20:40;15.50;;;9.43;;
19038;SDS011;9652;49.014;12.052;2024-03-08T00:23:09;14.93;;;10.07;;
19038;SDS011;9652;49.014;12.052;2024-03-08T00:25:36;17.23;;;9.83;;
19038;SDS011;9652;49.014;12.052;2024-03-08T00:28:04;14.63;;;10.17;;
19038;SDS011;9652;49.014;12.052;2024-03-08T00:30:31;15.00;;;10.23;;
19038;SDS011;9652;49.014;12.052;2024-03-08T00:33:00;16.10;;;10.73;;
19038;SDS011;9652;49.014;12.052;2024-03-08T00:35:27;15.73;;;9.77;;
19038;SDS011;9652;49.014;12.052;2024-03-08T00:37:54;16.67;;;10.53;;
19038;SDS011;9652;49.014;12.052;2024-03-08T00:40:21;14.77;;;9.90;;
19038;SDS011;9652;49.014;12.052;2024-03-08T00:42:48;15.30;;;10.13;;
19038;SDS011;9652;49.014;12.052;2024-03-08T00:45:16;15.07;;;9.80;;
19038;SDS011;9652;49.014;12.052;2024-03-08T00:47:43;18.40;;;11.10;;
19038;SDS011;9652;49.014;12.052;2024-03-08T00:50:12;17.63;;;11.07;;
19038;SDS011;9652;49.014;12.052;2024-03-08T00:52:39;15.43;;;10.40;;
19038;SDS011;9652;49.014;12.052;2024-03-08T00:55:06;14.50;;;10.00;;
19038;SDS011;9652;49.014;12.052;2024-03-08T00:57:35;16.20;;;10.53;;
19038;SDS011;9652;49.014;12.052;2024-03-08T01:00:04;17.00;;;10.40;;
19038;SDS011;9652;49.014;12.052;2024-03-08T01:02:37;14.13;;;9.87;;
19038;SDS011;9652;49.014;12.052;2024-03-08T01:05:04;14.27;;;9.57;;
19038;SDS011;9652;49.014;12.052;2024-03-08T01:07:34;15.47;;;9.33;;
19038;SDS011;9652;49.014;12.052;2024-03-08T01:10:01;13.83;;;9.57;;
19038;SDS011;9652;49.014;12.052;2024-03-08T01:12:29;13.77;;;10.13;;
19038;SDS011;9652;49.014;12.052;2024-03-08T01:14:56;17.53;;;11.00;;
19038;SDS011;9652;49.014;12.052;2024-03-08T01:17:23;17.30;;;10.13;;
19038;SDS011;9652;49.014;12.052;2024-03-08T01:19:51;18.40;;;10.67;;
19038;SDS011;9652;49.014;12.052;2024-03-08T01:22:18;18.43;;;11.20;;
19038;SDS011;9652;49.014;12.052;2024-03-08T01:24:47;18.70;;;10.80;;
19038;SDS011;9652;49.014;12.052;2024-03-08T01:27:14;14.40;;;10.33;;
19038;SDS011;9652;49.014;12.052;2024-03-08T01:29:41;15.57;;;9.70;;
19038;SDS011;9652;49.014;12.052;2024-03-08T01:32:08;18.07;;;9.97;;
19038;SDS011;9652;49.014;12.052;2024-03-08T01:34:35;17.43;;;10.87;;
19038;SDS011;9652;49.014;12.052;2024-03-08T01:37:02;15.97;;;10.10;;
19038;SDS011;9652;49.014;12.052;2024-03-08T01:39:30;15.87;;;10.87;;
19038;SDS011;9652;49.014;12.052;2024-03-08T01:41:58;16.50;;;11.00;;
19038;SDS011;9652;49.014;12.052;2024-03-08T01:44:26;15.47;;;10.83;;
19038;SDS011;9652;49.014;12.052;2024-03-08T01:46:53;14.70;;;11.10;;
19038;SDS011;9652;49.014;12.052;2024-03-08T01:49:21;14.57;;;10.67;;
19038;SDS011;9652;49.014;12.052;2024-03-08T01:51:50;18.13;;;11.70;;
19038;SDS011;9652;49.014;12.052;2024-03-08T01:54:18;16.70;;;10.40;;
19038;SDS011;9652;49.014;12.052;2024-03-08T01:56:46;15.30;;;10.50;;
19038;SDS011;9652;49.014;12.052;2024-03-08T01:59:15;16.07;;;10.43;;
19038;SDS011;9652;49.014;12.052;2024-03-08T02:01:43;16.77;;;11.03;;
19038;SDS011;9652;49.014;12.052;2024-03-08T02:04:11;13.83;;;10.47;;
19038;SDS011;9652;49.014;12.052;2024-03-08T02:06:38;18.20;;;12.30;;
19038;SDS011;9652;49.014;12.052;2024-03-08T02:09:05;13.90;;;9.53;;
19038;SDS011;9652;49.014;12.052;2024-03-08T02:11:32;13.90;;;10.03;;
19038;SDS011;9652;49.014;12.052;2024-03-08T02:14:01;17.77;;;11.33;;
19038;SDS011;9652;49.014;12.052;2024-03-08T02:16:30;14.20;;;10.57;;
19038;SDS011;9652;49.014;12.052;2024-03-08T02:18:57;17.47;;;11.47;;
19038;SDS011;9652;49.014;12.052;2024-03-08T02:21:26;15.27;;;9.20;;
19038;SDS011;9652;49.014;12.052;2024-03-08T02:23:54;17.23;;;10.03;;
19038;SDS011;9652;49.014;12.052;2024-03-08T02:26:22;16.27;;;10.63;;
19038;SDS011;9652;49.014;12.052;2024-03-08T02:28:49;17.50;;;10.57;;
19038;SDS011;9652;49.014;12.052;2024-03-08T02:31:16;15.73;;;9.43;;
19038;SDS011;9652;49.014;12.052;2024-03-08T02:33:43;16.30;;;11.00;;
19038;SDS011;9652;49.014;12.052;2024-03-08T02:36:12;18.93;;;11.30;;
19038;SDS011;9652;49.014;12.052;2024-03-08T02:38:41;17.43;;;11.17;;
19038;SDS011;9652;49.014;12.052;2024-03-08T02:41:08;15.63;;;11.03;;
19038;SDS011;9652;49.014;12.052;2024-03-08T02:43:35;15.67;;;10.13;;
19038;SDS011;9652;49.014;12.052;2024-03-08T02:46:03;16.60;;;10.90;;
19038;SDS011;9652;49.014;12.052;2024-03-08T02:48:31;15.77;;;9.93;;
19038;SDS011;9652;49.014;12.052;2024-03-08T02:50:58;20.40;;;10.53;;
19038;SDS011;9652;49.014;12.052;2024-03-08T02:53:27;15.97;;;10.40;;
19038;SDS011;9652;49.014;12.052;2024-03-08T02:55:55;18.17;;;10.47;;
19038;SDS011;9652;49.014;12.052;2024-03-08T02:58:22;17.87;;;10.07;;
19038;SDS011;9652;49.014;12.052;2024-03-08T03:00:49;18.47;;;11.07;;
19038;SDS011;9652;49.014;12.052;2024-03-08T03:03:16;13.70;;;9.37;;
19038;SDS011;9652;49.014;12.052;2024-03-08T03:05:43;15.70;;;10.37;;
19038;SDS011;9652;49.014;12.052;2024-03-08T03:08:10;18.00;;;10.77;;
19038;SDS011;9652;49.014;12.052;2024-03-08T03:10:38;13.83;;;10.37;;
19038;SDS011;9652;49.014;12.052;2024-03-08T03:13:06;16.37;;;11.40;;
19038;SDS011;9652;49.014;12.052;2024-03-08T03:15:34;16.33;;;10.67;;
19038;SDS011;9652;49.014;12.052;2024-03-08T03:18:01;17.73;;;11.20;;
19038;SDS011;9652;49.014;12.052;2024-03-08T03:20:29;15.23;;;10.23;;
19038;SDS011;9652;49.014;12.052;2024-03-08T03:22:58;15.50;;;10.90;;
19038;SDS011;9652;49.014;12.052;2024-03-08T03:25:28;15.73;;;11.03;;
19038;SDS011;9652;49.014;12.052;2024-03-08T03:27:59;15.07;;;10.03;;
19038;SDS011;9652;49.014;12.052;2024-03-08T03:30:28;14.57;;;10.53;;
19038;SDS011;9652;49.014;12.052;2024-03-08T03:32:58;15.40;;;10.80;;
19038;SDS011;9652;49.014;12.052;2024-03-08T03:35:27;13.50;;;10.40;;
19038;SDS011;9652;49.014;12.052;2024-03-08T03:37:55;17.77;;;11.13;;
19038;SDS011;9652;49.014;12.052;2024-03-08T03:40:31;17.40;;;10.50;;
19038;SDS011;9652;49.014;12.052;2024-03-08T03:42:59;16.20;;;10.40;;
19038;SDS011;9652;49.014;12.052;2024-03-08T03:45:29;14.50;;;10.03;;
19038;SDS011;9652;49.014;12.052;2024-03-08T03:48:00;17.17;;;9.93;;
19038;SDS011;9652;49.014;12.052;2024-03-08T03:50:28;16.57;;;10.50;;
19038;SDS011;9652;49.014;12.052;2024-03-08T03:52:56;15.63;;;10.93;;
19038;SDS011;9652;49.014;12.052;2024-03-08T03:55:23;16.73;;;10.47;;
19038;SDS011;9652;49.014;12.052;2024-03-08T03:57:50;13.70;;;9.40;;
19038;SDS011;9652;49.014;12.052;2024-03-08T04:00:18;13.47;;;9.77;;
19038;SDS011;9652;49.014;12.052;2024-03-08T04:02:47;15.73;;;10.93;;
19038;SDS011;9652;49.014;12.052;2024-03-08T04:05:14;14.63;;;9.63;;
19038;SDS011;9652;49.014;12.052;2024-03-08T04:07:41;14.23;;;11.07;;
19038;SDS011;9652;49.014;12.052;2024-03-08T04:10:10;16.80;;;10.40;;
19038;SDS011;9652;49.014;12.052;2024-03-08T04:12:38;17.77;;;11.40;;
19038;SDS011;9652;49.014;12.052;2024-03-08T04:15:05;16.37;;;9.90;;
19038;SDS011;9652;49.014;12.052;2024-03-08T04:17:33;16.70;;;10.80;;
19038;SDS011;9652;49.014;12.052;2024-03-08T04:20:04;14.47;;;10.07;;
19038;SDS011;9652;49.014;12.052;2024-03-08T04:22:35;15.43;;;10.87;;
19038;SDS011;9652;49.014;12.052;2024-03-08T04:25:02;17.10;;;11.27;;
19038;SDS011;9652;49.014;12.052;2024-03-08T04:27:31;15.27;;;10.57;;
19038;SDS011;9652;49.014;12.052;2024-03-08T04:29:59;15.40;;;10.37;;
19038;SDS011;9652;49.014;12.052;2024-03-08T04:32:26;19.17;;;11.67;;
19038;SDS011;9652;49.014;12.052;2024-03-08T04:34:54;15.57;;;10.10;;
19038;SDS011;9652;49.014;12.052;2024-03-08T04:37:23;14.17;;;10.60;;
19038;SDS011;9652;49.014;12.052;2024-03-08T04:39:50;16.57;;;10.73;;
19038;SDS011;9652;49.014;12.052;2024-03-08T04:42:17;17.10;;;11.63;;
19038;SDS011;9652;49.014;12.052;2024-03-08T04:44:45;15.80;;;10.27;;
19038;SDS011;9652;49.014;12.052;2024-03-08T04:47:12;15.57;;;11.17;;
19038;SDS011;9652;49.014;12.052;2024-03-08T04:49:39;13.13;;;10.13;;
19038;SDS011;9652;49.014;12.052;2024-03-08T04:52:06;14.43;;;9.93;;
19038;SDS011;9652;49.014;12.052;2024-03-08T04:54:35;14.30;;;10.50;;
19038;SDS011;9652;49.014;12.052;2024-03-08T04:57:02;15.07;;;10.73;;
19038;SDS011;9652;49.014;12.052;2024-03-08T04:59:30;15.50;;;10.73;;
19038;SDS011;9652;49.014;12.052;2024-03-08T05:01:57;14.77;;;11.63;;
19038;SDS011;9652;49.014;12.052;2024-03-08T05:04:24;17.23;;;11.30;;
19038;SDS011;9652;49.014;12.052;2024-03-08T05:06:51;15.53;;;10.93;;
19038;SDS011;9652;49.014;12.052;2024-03-08T05:09:18;17.17;;;11.43;;
19038;SDS011;9652;49.014;12.052;2024-03-08T05:11:47;16.63;;;11.50;;
19038;SDS011;9652;49.014;12.052;2024-03-08T05:14:15;15.40;;;10.13;;
19038;SDS011;9652;49.014;12.052;2024-03-08T05:16:45;14.50;;;9.87;;
19038;SDS011;9652;49.014;12.052;2024-03-08T05:19:13;15.40;;;11.23;;
19038;SDS011;9652;49.014;12.052;2024-03-08T05:21:42;13.70;;;10.90;;
19038;SDS011;9652;49.014;12.052;2024-03-08T05:24:10;14.37;;;10.80;;
19038;SDS011;9652;49.014;12.052;2024-03-08T05:26:38;16.40;;;11.37;;
19038;SDS011;9652;49.014;12.052;2024-03-08T05:29:06;16.40;;;11.20;;
19038;SDS011;9652;49.014;12.052;2024-03-08T05:31:36;12.87;;;10.17;;
19038;SDS011;9652;49.014;12.052;2024-03-08T05:34:12;17.67;;;10.63;;
19038;SDS011;9652;49.014;12.052;2024-03-08T05:36:39;16.60;;;11.43;;
19038;SDS011;9652;49.014;12.052;2024-03-08T05:39:09;16.17;;;11.17;;
19038;SDS011;9652;49.014;12.052;2024-03-08T05:41:37;14.23;;;9.83;;
19038;SDS011;9652;49.014;12.052;2024-03-08T05:44:06;17.10;;;10.80;;
19038;SDS011;9652;49.014;12.052;2024-03-08T05:46:34;16.43;;;11.37;;
19038;SDS011;9652;49.014;12.052;2024-03-08T05:49:01;15.13;;;10.87;;
19038;SDS011;9652;49.014;12.052;2024-03-08T05:51:30;16.43;;;10.97;;
19038;SDS011;9652;49.014;12.052;2024-03-08T05:53:59;17.07;;;10.50;;
19038;SDS011;9652;49.014;12.052;2024-03-08T05:56:28;17.43;;;11.17;;
19038;SDS011;9652;49.014;12.052;2024-03-08T05:58:55;15.20;;;10.57;;
19038;SDS011;9652;49.014;12.052;2024-03-08T06:01:24;17.20;;;11.67;;
19038;SDS011;9652;49.014;12.052;2024-03-08T06:03:52;18.50;;;11.53;;
19038;SDS011;9652;49.014;12.052;2024-03-08T06:06:20;17.07;;;11.27;;
19038;SDS011;9652;49.014;12.052;2024-03-08T06:08:48;15.27;;;10.27;;
19038;SDS011;9652;49.014;12.052;2024-03-08T06:11:16;15.17;;;10.73;;
19038;SDS011;9652;49.014;12.052;2024-03-08T06:13:45;15.83;;;10.87;;
19038;SDS011;9652;49.014;12.052;2024-03-08T06:16:13;14.93;;;10.87;;
19038;SDS011;9652;49.014;12.052;2024-03-08T06:18:41;13.40;;;9.80;;
19038;SDS011;9652;49.014;12.052;2024-03-08T06:21:08;16.63;;;11.30;;
19038;SDS011;9652;49.014;12.052;2024-03-08T06:23:36;19.53;;;12.07;;
19038;SDS011;9652;49.014;12.052;2024-03-08T06:26:04;16.23;;;11.00;;
19038;SDS011;9652;49.014;12.052;2024-03-08T06:28:31;16.73;;;11.67;;
19038;SDS011;9652;49.014;12.052;2024-03-08T06:31:00;16.37;;;10.97;;
19038;SDS011;9652;49.014;12.052;2024-03-08T06:33:28;14.40;;;10.30;;
19038;SDS011;9652;49.014;12.052;2024-03-08T06:35:58;17.57;;;10.33;;
19038;SDS011;9652;49.014;12.052;2024-03-08T06:38:26;16.73;;;10.90;;
19038;SDS011;9652;49.014;12.052;2024-03-08T06:40:53;20.63;;;11.60;;
19038;SDS011;9652;49.014;12.052;2024-03-08T06:43:20;14.97;;;9.90;;
19038;SDS011;9652;49.014;12.052;2024-03-08T06:45:47;17.80;;;10.73;;
19038;SDS011;9652;49.014;12.052;2024-03-08T06:48:14;17.70;;;12.23;;
19038;SDS011;9652;49.014;12.052;2024-03-08T06:50:42;17.73;;;11.00;;
19038;SDS011;9652;49.014;12.052;2024-03-08T06:53:12;15.67;;;11.17;;
19038;SDS011;9652;49.014;12.052;2024-03-08T06:55:39;13.33;;;9.77;;
19038;SDS011;9652;49.014;12.052;2024-03-08T06:58:06;15.53;;;10.87;;
19038;SDS011;9652;49.014;12.052;2024-03-08T07:00:35;19.80;;;11.90;;
19038;SDS011;9652;49.014;12.052;2024-03-08T07:03:03;14.93;;;10.90;;
19038;SDS011;9652;49.014;12.052;2024-03-08T07:05:37;16.10;;;10.93;;
19038;SDS011;9652;49.014;12.052;2024-03-08T07:08:05;14.00;;;9.80;;
19038;SDS011;9652;49.014;12.052;2024-03-08T07:10:34;14.57;;;10.90;;
19038;SDS011;9652;49.014;12.052;2024-03-08T07:13:02;13.93;;;9.97;;
19038;SDS011;9652;49.014;12.052;2024-03-08T07:15:29;13.90;;;9.93;;
19038;SDS011;9652;49.014;12.052;2024-03-08T07:17:57;17.50;;;10.07;;
19038;SDS011;9652;49.014;12.052;2024-03-08T07:20:25;17.67;;;11.33;;
19038;SDS011;9652;49.014;12.052;2024-03-08T07:22:53;15.67;;;9.43;;
19038;SDS011;9652;49.014;12.052;2024-03-08T07:25:21;16.20;;;11.00;;
19038;SDS011;9652;49.014;12.052;2024-03-08T07:27:50;15.70;;;10.47;;
19038;SDS011;9652;49.014;12.052;2024-03-08T07:30:18;18.60;;;10.93;;
19038;SDS011;9652;49.014;12.052;2024-03-08T07:33:03;16.53;;;11.50;;
19038;SDS011;9652;49.014;12.052;2024-03-08T07:35:32;19.27;;;11.43;;
19038;SDS011;9652;49.014;12.052;2024-03-08T07:38:02;15.23;;;11.07;;
19038;SDS011;9652;49.014;12.052;2024-03-08T07:40:30;16.97;;;10.93;;
19038;SDS011;9652;49.014;12.052;2024-03-08T07:43:00;16.67;;;10.13;;
19038;SDS011;9652;49.014;12.052;2024-03-08T07:45:27;16.00;;;10.83;;
19038;SDS011;9652;49.014;12.052;2024-03-08T07:47:55;16.37;;;9.90;;
19038;SDS011;9652;49.014;12.052;2024-03-08T07:50:23;15.73;;;10.60;;
19038;SDS011;9652;49.014;12.052;2024-03-08T07:52:50;17.20;;;9.77;;
19038;SDS011;9652;49.014;12.052;2024-03-08T07:55:17;18.30;;;11.13;;
19038;SDS011;9652;49.014;12.052;2024-03-08T07:57:44;15.87;;;9.77;;
19038;SDS011;9652;49.014;12.052;2024-03-08T08:00:15;17.73;;;10.83;;
19038;SDS011;9652;49.014;12.052;2024-03-08T08:02:44;15.33;;;10.00;;
19038;SDS011;9652;49.014;12.052;2024-03-08T08:05:11;16.03;;;10.23;;
19038;SDS011;9652;49.014;12.052;2024-03-08T08:07:39;16.03;;;10.10;;
19038;SDS011;9652;49.014;12.052;2024-03-08T08:10:09;15.13;;;9.60;;
19038;SDS011;9652;49.014;12.052;2024-03-08T08:12:42;12.07;;;8.37;;
19038;SDS011;9652;49.014;12.052;2024-03-08T08:15:09;15.70;;;9.80;;
19038;SDS011;9652;49.014;12.052;2024-03-08T08:17:37;14.50;;;9.47;;
19038;SDS011;9652;49.014;12.052;2024-03-08T08:20:05;12.30;;;9.03;;
19038;SDS011;9652;49.014;12.052;2024-03-08T08:22:33;14.57;;;8.83;;
19038;SDS011;9652;49.014;12.052;2024-03-08T08:25:00;15.23;;;10.13;;
19038;SDS011;9652;49.014;12.052;2024-03-08T08:27:28;15.97;;;10.07;;
19038;SDS011;9652;49.014;12.052;2024-03-08T08:29:55;13.33;;;8.90;;
19038;SDS011;9652;49.014;12.052;2024-03-08T08:32:22;16.33;;;10.07;;
19038;SDS011;9652;49.014;12.052;2024-03-08T08:34:50;13.00;;;8.57;;
19038;SDS011;9652;49.014;12.052;2024-03-08T08:37:17;17.30;;;10.63;;
19038;SDS011;9652;49.014;12.052;2024-03-08T08:39:44;14.97;;;9.20;;
19038;SDS011;9652;49.014;12.052;2024-03-08T08:42:12;15.07;;;9.53;;
19038;SDS011;9652;49.014;12.052;2024-03-08T08:44:39;15.90;;;9.83;;
19038;SDS011;9652;49.014;12.052;2024-03-08T08:47:06;15.67;;;9.37;;
19038;SDS011;9652;49.014;12.052;2024-03-08T08:49:33;16.47;;;10.57;;
19038;SDS011;9652;49.014;12.052;2024-03-08T08:52:01;18.83;;;10.57;;
19038;SDS011;9652;49.014;12.052;2024-03-08T08:54:29;18.40;;;10.67;;
19038;SDS011;9652;49.014;12.052;2024-03-08T08:56:56;16.30;;;10.57;;
19038;SDS011;9652;49.014;12.052;2024-03-08T08:59:23;15.03;;;9.57;;
19038;SDS011;9652;49.014;12.052;2024-03-08T09:01:51;15.77;;;9.90;;
19038;SDS011;9652;49.014;12.052;2024-03-08T09:04:19;19.33;;;10.30;;
19038;SDS011;9652;49.014;12.052;2024-03-08T09:06:48;15.43;;;9.13;;
19038;SDS011;9652;49.014;12.052;2024-03-08T09:09:16;14.50;;;10.00;;
19038;SDS011;9652;49.014;12.052;2024-03-08T09:11:44;16.30;;;10.27;;
19038;SDS011;9652;49.014;12.052;2024-03-08T09:14:11;16.27;;;10.17;;
19038;SDS011;9652;49.014;12.052;2024-03-08T09:16:39;14.73;;;8.63;;
19038;SDS011;9652;49.014;12.052;2024-03-08T09:19:06;14.20;;;9.30;;
19038;SDS011;9652;49.014;12.052;2024-03-08T09:21:36;15.63;;;9.60;;
19038;SDS011;9652;49.014;12.052;2024-03-08T09:24:04;15.67;;;9.53;;
19038;SDS011;9652;49.014;12.052;2024-03-08T09:26:34;16.73;;;10.27;;
19038;SDS011;9652;49.014;12.052;2024-03-08T09:29:02;14.73;;;9.50;;
19038;SDS011;9652;49.014;12.052;2024-03-08T09:31:30;16.33;;;8.97;;
19038;SDS011;9652;49.014;12.052;2024-03-08T09:33:57;15.50;;;9.67;;
19038;SDS011;9652;49.014;12.052;2024-03-08T09:36:24;15.90;;;8.83;;
19038;SDS011;9652;49.014;12.052;2024-03-08T09:38:52;15.40;;;9.07;;
19038;SDS011;9652;49.014;12.052;2024-03-08T09:41:19;15.37;;;10.10;;
19038;SDS011;9652;49.014;12.052;2024-03-08T09:43:48;14.00;;;8.67;;
19038;SDS011;9652;49.014;12.052;2024-03-08T09:46:16;16.77;;;10.17;;
19038;SDS011;9652;49.014;12.052;2024-03-08T09:48:44;14.37;;;9.53;;
19038;SDS011;9652;49.014;12.052;2024-03-08T09:51:12;16.77;;;9.80;;
19038;SDS011;9652;49.014;12.052;2024-03-08T09:53:40;15.50;;;9.50;;
19038;SDS011;9652;49.014;12.052;2024-03-08T09:56:08;14.33;;;9.10;;
19038;SDS011;9652;49.014;12.052;2024-03-08T09:58:36;17.07;;;10.10;;
19038;SDS011;9652;49.014;12.052;2024-03-08T10:01:20;14.70;;;9.43;;
19038;SDS011;9652;49.014;12.052;2024-03-08T10:03:47;17.87;;;9.07;;
19038;SDS011;9652;49.014;12.052;2024-03-08T10:06:15;12.80;;;8.77;;
19038;SDS011;9652;49.014;12.052;2024-03-08T10:08:43;13.77;;;9.23;;
19038;SDS011;9652;49.014;12.052;2024-03-08T10:11:11;16.47;;;9.40;;
19038;SDS011;9652;49.014;12.052;2024-03-08T10:13:38;13.43;;;9.23;;
19038;SDS011;9652;49.014;12.052;2024-03-08T10:16:06;16.93;;;9.67;;
19038;SDS011;9652;49.014;12.052;2024-03-08T10:18:35;12.40;;;7.90;;
19038;SDS011;9652;49.014;12.052;2024-03-08T10:21:03;13.47;;;8.67;;
19038;SDS011;9652;49.014;12.052;2024-03-08T10:23:32;14.23;;;8.80;;
19038;SDS011;9652;49.014;12.052;2024-03-08T10:26:09;12.20;;;7.83;;
19038;SDS011;9652;49.014;12.052;2024-03-08T10:28:41;12.87;;;8.17;;
19038;SDS011;9652;49.014;12.052;2024-03-08T10:31:09;14.17;;;8.60;;
19038;SDS011;9652;49.014;12.052;2024-03-08T10:33:37;13.90;;;8.00;;
19038;SDS011;9652;49.014;12.052;2024-03-08T10:36:06;15.00;;;8.90;;
19038;SDS011;9652;49.014;12.052;2024-03-08T10:38:35;13.20;;;8.50;;
19038;SDS011;9652;49.014;12.052;2024-03-08T10:41:05;14.47;;;9.37;;
19038;SDS011;9652;49.014;12.052;2024-03-08T10:43:37;14.77;;;8.90;;
19038;SDS011;9652;49.014;12.052;2024-03-08T10:46:24;10.47;;;7.30;;
19038;SDS011;9652;49.014;12.052;2024-03-08T10:49:02;12.60;;;7.73;;
19038;SDS011;9652;49.014;12.052;2024-03-08T10:51:34;12.73;;;8.60;;
19038;SDS011;9652;49.014;12.052;2024-03-08T10:54:03;12.43;;;7.93;;
19038;SDS011;9652;49.014;12.052;2024-03-08T10:56:32;13.33;;;8.53;;
19038;SDS011;9652;49.014;12.052;2024-03-08T10:59:00;12.23;;;7.57;;
19038;SDS011;9652;49.014;12.052;2024-03-08T11:01:29;12.50;;;8.43;;
19038;SDS011;9652;49.014;12.052;2024-03-08T11:03:57;12.40;;;8.33;;
19038;SDS011;9652;49.014;12.052;2024-03-08T11:06:30;14.50;;;8.73;;
19038;SDS011;9652;49.014;12.052;2024-03-08T11:09:18;14.10;;;8.47;;
19038;SDS011;9652;49.014;12.052;2024-03-08T11:14:55;11.80;;;7.50;;
19038;SDS011;9652;49.014;12.052;2024-03-08T11:17:39;12.03;;;8.10;;
19038;SDS011;9652;49.014;12.052;2024-03-08T11:20:12;15.33;;;7.77;;
19038;SDS011;9652;49.014;12.052;2024-03-08T11:22:47;12.77;;;8.00;;
19038;SDS011;9652;49.014;12.052;2024-03-08T11:25:35;14.40;;;8.07;;
19038;SDS011;9652;49.014;12.052;2024-03-08T11:28:07;12.83;;;8.07;;
19038;SDS011;9652;49.014;12.052;2024-03-08T11:30:46;14.80;;;8.23;;
19038;SDS011;9652;49.014;12.052;2024-03-08T11:33:49;12.23;;;8.03;;
19038;SDS011;9652;49.014;12.052;2024-03-08T11:36:20;11.63;;;8.33;;
19038;SDS011;9652;49.014;12.052;2024-03-08T11:38:50;10.97;;;7.60;;
19038;SDS011;9652;49.014;12.052;2024-03-08T11:41:21;11.67;;;7.27;;
19038;SDS011;9652;49.014;12.052;2024-03-08T11:43:52;11.03;;;7.30;;
19038;SDS011;9652;49.014;12.052;2024-03-08T11:46:31;10.70;;;6.93;;
19038;SDS011;9652;49.014;12.052;2024-03-08T11:48:59;9.67;;;6.77;;
19038;SDS011;9652;49.014;12.052;2024-03-08T11:51:27;9.03;;;7.00;;
19038;SDS011;9652;49.014;12.052;2024-03-08T11:53:56;10.83;;;7.13;;
19038;SDS011;9652;49.014;12.052;2024-03-08T11:56:24;8.57;;;6.83;;
19038;SDS011;9652;49.014;12.052;2024-03-08T11:58:52;10.93;;;6.90;;
19038;SDS011;9652;49.014;12.052;2024-03-08T12:01:22;10.57;;;7.57;;
19038;SDS011;9652;49.014;12.052;2024-03-08T12:03:52;10.03;;;6.73;;
19038;SDS011;9652;49.014;12.052;2024-03-08T12:06:20;8.67;;;6.80;;
19038;SDS011;9652;49.014;12.052;2024-03-08T12:08:47;9.70;;;6.43;;
19038;SDS011;9652;49.014;12.052;2024-03-08T12:11:17;8.30;;;6.03;;
19038;SDS011;9652;49.014;12.052;2024-03-08T12:13:48;9.87;;;6.27;;
19038;SDS011;9652;49.014;12.052;2024-03-08T12:16:17;11.87;;;7.10;;
19038;SDS011;9652;49.014;12.052;2024-03-08T12:18:44;10.87;;;6.30;;
19038;SDS011;9652;49.014;12.052;2024-03-08T12:21:12;10.37;;;6.53;;
19038;SDS011;9652;49.014;12.052;2024-03-08T12:23:42;10.23;;;6.23;;
19038;SDS011;9652;49.014;12.052;2024-03-08T12:26:11;11.20;;;6.90;;
19038;SDS011;9652;49.014;12.052;2024-03-08T12:28:42;10.67;;;6.50;;
19038;SDS011;9652;49.014;12.052;2024-03-08T12:31:13;8.20;;;5.60;;
19038;SDS011;9652;49.014;12.052;2024-03-08T12:33:48;9.60;;;6.03;;
19038;SDS011;9652;49.014;12.052;2024-03-08T12:36:16;8.57;;;5.97;;
19038;SDS011;9652;49.014;12.052;2024-03-08T12:38:45;6.50;;;5.27;;
19038;SDS011;9652;49.014;12.052;2024-03-08T12:41:13;10.13;;;6.20;;
19038;SDS011;9652;49.014;12.052;2024-03-08T12:43:41;6.67;;;5.30;;
19038;SDS011;9652;49.014;12.052;2024-03-08T12:46:13;7.00;;;5.10;;
19038;SDS011;9652;49.014;12.052;2024-03-08T12:48:41;7.40;;;4.80;;
19038;SDS011;9652;49.014;12.052;2024-03-08T12:51:12;7.17;;;5.50;;
19038;SDS011;9652;49.014;12.052;2024-03-08T12:53:40;7.33;;;5.00;;
19038;SDS011;9652;49.014;12.052;2024-03-08T12:56:09;8.43;;;5.07;;
19038;SDS011;9652;49.014;12.052;2024-03-08T12:58:36;7.20;;;5.30;;
19038;SDS011;9652;49.014;12.052;2024-03-08T13:01:07;9.73;;;5.07;;
19038;SDS011;9652;49.014;12.052;2024-03-08T13:03:34;8.43;;;4.60;;
19038;SDS011;9652;49.014;12.052;2024-03-08T13:06:02;7.97;;;5.33;;
19038;SDS011;9652;49.014;12.052;2024-03-08T13:08:33;7.40;;;5.13;;
19038;SDS011;9652;49.014;12.052;2024-03-08T13:11:04;8.97;;;5.47;;
19038;SDS011;9652;49.014;12.052;2024-03-08T13:13:32;7.47;;;5.53;;
19038;SDS011;9652;49.014;12.052;2024-03-08T13:16:00;6.57;;;5.03;;
19038;SDS011;9652;49.014;12.052;2024-03-08T13:18:29;9.73;;;6.03;;
19038;SDS011;9652;49.014;12.052;2024-03-08T13:20:56;8.57;;;5.20;;
19038;SDS011;9652;49.014;12.052;2024-03-08T13:23:23;9.77;;;5.43;;
19038;SDS011;9652;49.014;12.052;2024-03-08T13:25:50;7.97;;;5.73;;
19038;SDS011;9652;49.014;12.052;2024-03-08T13:28:17;7.10;;;5.23;;
19038;SDS011;9652;49.014;12.052;2024-03-08T13:30:48;7.67;;;5.53;;
19038;SDS011;9652;49.014;12.052;2024-03-08T13:33:15;8.73;;;6.10;;
19038;SDS011;9652;49.014;12.052;2024-03-08T13:35:44;5.60;;;4.00;;
19038;SDS011;9652;49.014;12.052;2024-03-08T13:38:11;7.90;;;5.30;;
19038;SDS011;9652;49.014;12.052;2024-03-08T13:40:39;5.97;;;4.33;;
19038;SDS011;9652;49.014;12.052;2024-03-08T13:43:07;7.03;;;5.03;;
19038;SDS011;9652;49.014;12.052;2024-03-08T13:45:34;7.20;;;5.57;;
19038;SDS011;9652;49.014;12.052;2024-03-08T13:48:07;7.17;;;4.83;;
19038;SDS011;9652;49.014;12.052;2024-03-08T13:50:37;7.77;;;5.00;;
19038;SDS011;9652;49.014;12.052;2024-03-08T13:53:06;6.47;;;4.83;;
19038;SDS011;9652;49.014;12.052;2024-03-08T13:55:35;9.33;;;5.73;;
19038;SDS011;9652;49.014;12.052;2024-03-08T13:58:02;7.93;;;4.83;;
19038;SDS011;9652;49.014;12.052;2024-03-08T14:00:34;6.20;;;5.07;;
19038;SDS011;9652;49.014;12.052;2024-03-08T14:03:01;7.07;;;4.50;;
19038;SDS011;9652;49.014;12.052;2024-03-08T14:05:32;7.20;;;4.57;;
19038;SDS011;9652;49.014;12.052;2024-03-08T14:08:00;5.93;;;4.90;;
19038;SDS011;9652;49.014;12.052;2024-03-08T14:10:30;6.23;;;5.00;;
19038;SDS011;9652;49.014;12.052;2024-03-08T14:12:57;8.03;;;5.10;;
19038;SDS011;9652;49.014;12.052;2024-03-08T14:15:25;5.93;;;4.70;;
19038;SDS011;9652;49.014;12.052;2024-03-08T14:17:52;7.57;;;4.73;;
19038;SDS011;9652;49.014;12.052;2024-03-08T14:20:20;7.03;;;4.57;;
19038;SDS011;9652;49.014;12.052;2024-03-08T14:22:50;7.30;;;5.10;;
19038;SDS011;9652;49.014;12.052;2024-03-08T14:25:18;6.23;;;4.57;;
19038;SDS011;9652;49.014;12.052;2024-03-08T14:27:46;5.97;;;4.27;;
19038;SDS011;9652;49.014;12.052;2024-03-08T14:30:14;6.03;;;4.10;;
19038;SDS011;9652;49.014;12.052;2024-03-08T14:32:57;6.87;;;4.60;;
19038;SDS011;9652;49.014;12.052;2024-03-08T14:35:24;7.90;;;4.20;;
19038;SDS011;9652;49.014;12.052;2024-03-08T14:37:52;6.73;;;4.50;;
19038;SDS011;9652;49.014;12.052;2024-03-08T14:40:19;5.53;;;4.07;;
19038;SDS011;9652;49.014;12.052;2024-03-08T14:42:49;5.83;;;4.20;;